createdAt,value
2023-02-18T00:02:26.326Z,9.78
2023-02-18T00:07:28.119Z,9.85
2023-02-18T00:12:31.329Z,9.89
2023-02-18T00:17:32.982Z,9.88
2023-02-18T00:22:34.923Z,9.96
2023-02-18T00:27:36.532Z,10.01
2023-02-18T00:32:38.163Z,10.02
2023-02-18T00:37:39.781Z,10.01
2023-02-18T00:42:41.439Z,10.02
2023-02-18T00:47:43.493Z,10.06
2023-02-18T00:52:45.773Z,10.10
2023-02-18T00:57:47.393Z,10.15
2023-02-18T01:02:49.051Z,10.10
2023-02-18T01:07:50.692Z,10.05
2023-02-18T01:12:52.315Z,9.99
2023-02-18T01:17:53.953Z,9.99
2023-02-18T01:22:55.573Z,10.01
2023-02-18T01:27:57.527Z,9.96
2023-02-18T01:32:59.232Z,9.86
2023-02-18T01:38:00.907Z,9.78
2023-02-18T01:43:03.001Z,9.74
2023-02-18T01:48:07.362Z,9.63
2023-02-18T01:53:09.273Z,9.49
2023-02-18T01:58:13.677Z,9.44
2023-02-18T02:03:15.397Z,9.34
2023-02-18T02:08:18.605Z,9.33
2023-02-18T02:13:40.469Z,9.33
2023-02-18T02:19:00.355Z,9.32
2023-02-18T02:24:04.787Z,9.40
2023-02-18T02:29:37.320Z,9.37
2023-02-18T02:34:46.588Z,9.39
2023-02-18T02:40:06.901Z,9.34
2023-02-18T02:45:33.594Z,9.43
2023-02-18T02:50:43.992Z,9.43
2023-02-18T02:55:46.073Z,9.37
2023-02-18T03:01:21.074Z,9.33
2023-02-18T03:06:32.116Z,9.30
2023-02-18T03:11:44.402Z,9.25
2023-02-18T03:16:58.201Z,9.27
2023-02-18T03:22:09.221Z,9.26
2023-02-18T03:27:19.607Z,9.25
2023-02-18T03:32:24.041Z,9.16
2023-02-18T03:37:27.321Z,9.20
2023-02-18T03:42:29.680Z,9.14
2023-02-18T03:47:31.471Z,9.14
2023-02-18T03:52:33.180Z,9.11
2023-02-18T03:57:34.949Z,9.13
2023-02-18T04:02:36.611Z,9.15
2023-02-18T04:07:38.282Z,9.17
2023-02-18T04:12:40.075Z,9.28
2023-02-18T04:17:41.789Z,9.31
2023-02-18T04:22:43.440Z,9.20
2023-02-18T04:27:45.186Z,9.24
2023-02-18T04:32:46.970Z,9.21
2023-02-18T04:37:48.593Z,9.29
2023-02-18T04:42:50.195Z,9.24
2023-02-18T04:47:52.209Z,9.22
2023-02-18T04:52:53.907Z,9.18
2023-02-18T04:57:55.516Z,9.24
2023-02-18T05:02:57.151Z,9.22
2023-02-18T05:07:58.774Z,9.26
2023-02-18T05:13:00.817Z,9.18
2023-02-18T05:18:02.438Z,9.18
2023-02-18T05:23:04.047Z,9.18
2023-02-18T05:28:05.664Z,9.08
2023-02-18T05:33:07.290Z,9.00
2023-02-18T05:38:10.011Z,8.93
2023-02-18T05:43:12.210Z,8.93
2023-02-18T05:48:13.996Z,8.88
2023-02-18T05:53:17.568Z,8.98
2023-02-18T05:58:19.330Z,9.11
2023-02-18T06:03:20.985Z,9.13
2023-02-18T06:08:22.701Z,9.16
2023-02-18T06:13:24.465Z,9.20
2023-02-18T06:18:26.172Z,9.04
2023-02-18T06:23:27.872Z,8.76
2023-02-18T06:28:29.497Z,8.61
2023-02-18T06:33:31.111Z,8.61
2023-02-18T06:38:33.196Z,8.58
2023-02-18T06:43:35.586Z,8.65
2023-02-18T06:48:38.220Z,8.65
2023-02-18T06:53:40.142Z,8.69
2023-02-18T06:58:41.795Z,8.70
2023-02-18T07:03:43.460Z,8.73
2023-02-18T07:08:45.094Z,8.77
2023-02-18T07:13:46.690Z,8.83
2023-02-18T07:18:48.365Z,8.68
2023-02-18T07:23:50.098Z,8.68
2023-02-18T07:28:51.888Z,8.54
2023-02-18T07:33:53.494Z,8.56
2023-02-18T07:38:55.347Z,8.61
2023-02-18T07:43:56.988Z,8.55
2023-02-18T07:48:58.645Z,8.50
2023-02-18T07:54:00.319Z,8.68
2023-02-18T07:59:01.939Z,8.95
2023-02-18T08:04:04.175Z,8.96
2023-02-18T08:09:06.439Z,9.11
2023-02-18T08:14:08.555Z,9.00
2023-02-18T08:19:10.417Z,9.28
2023-02-18T08:24:12.212Z,9.28
2023-02-18T08:29:13.805Z,9.37
2023-02-18T08:34:15.418Z,9.49
2023-02-18T08:39:17.007Z,9.58
2023-02-18T08:44:18.632Z,9.34
2023-02-18T08:49:24.342Z,9.40
2023-02-18T08:54:26.155Z,9.46
2023-02-18T08:59:27.803Z,9.96
2023-02-18T09:04:30.017Z,10.56
2023-02-18T09:09:31.768Z,10.82
2023-02-18T09:14:33.446Z,11.24
2023-02-18T09:19:35.083Z,11.32
2023-02-18T09:24:38.601Z,11.40
2023-02-18T09:29:41.058Z,11.51
2023-02-18T09:34:42.663Z,11.67
2023-02-18T09:39:44.272Z,11.83
2023-02-18T09:44:52.467Z,11.72
2023-02-18T09:50:28.336Z,11.56
2023-02-18T09:55:36.338Z,11.42
2023-02-18T10:00:48.544Z,11.71
2023-02-18T10:06:06.922Z,11.55
2023-02-18T10:11:21.897Z,11.50
2023-02-18T10:16:25.071Z,11.44
2023-02-18T10:21:30.633Z,11.41
2023-02-18T10:26:37.169Z,11.38
2023-02-18T10:31:50.087Z,11.31
2023-02-18T10:36:56.331Z,11.53
2023-02-18T10:42:19.446Z,11.35
2023-02-18T10:47:43.111Z,11.48
2023-02-18T10:52:49.613Z,11.35
2023-02-18T10:57:54.722Z,11.58
2023-02-18T11:03:24.566Z,11.68
2023-02-18T11:08:29.097Z,11.91
2023-02-18T11:13:32.876Z,12.33
2023-02-18T11:18:40.313Z,12.48
2023-02-18T11:23:50.862Z,12.48
2023-02-18T11:29:00.605Z,12.88
2023-02-18T11:34:03.310Z,12.75
2023-02-18T11:39:16.356Z,12.83
2023-02-18T11:44:23.949Z,12.70
2023-02-18T11:49:26.246Z,12.76
2023-02-18T11:54:31.342Z,12.51
2023-02-18T11:59:37.928Z,12.39
2023-02-18T12:04:58.127Z,12.11
2023-02-18T12:10:12.606Z,11.96
2023-02-18T12:15:19.018Z,11.85
2023-02-18T12:21:02.338Z,11.87
2023-02-18T12:26:22.580Z,11.89
2023-02-18T12:31:42.534Z,12.35
2023-02-18T12:36:59.183Z,12.13
2023-02-18T12:42:15.833Z,12.08
2023-02-18T12:47:29.102Z,11.74
2023-02-18T12:53:10.051Z,11.33
2023-02-18T12:58:20.499Z,11.08
2023-02-18T13:04:06.034Z,11.07
2023-02-18T13:09:22.690Z,11.13
2023-02-18T13:14:29.718Z,11.29
2023-02-18T13:19:36.768Z,11.46
2023-02-18T13:24:44.843Z,11.55
2023-02-18T13:30:15.326Z,11.72
2023-02-18T13:35:25.233Z,11.54
2023-02-18T13:40:30.667Z,11.22
2023-02-18T13:45:34.050Z,11.01
2023-02-18T13:50:43.594Z,11.13
2023-02-18T13:56:00.352Z,11.16
2023-02-18T14:01:06.781Z,11.00
2023-02-18T14:06:15.834Z,11.00
2023-02-18T14:11:17.474Z,10.97
2023-02-18T14:16:19.438Z,11.01
2023-02-18T14:21:34.869Z,10.92
2023-02-18T14:26:48.601Z,10.78
2023-02-18T14:31:54.726Z,10.73
2023-02-18T14:37:17.570Z,10.76
2023-02-18T14:42:25.034Z,10.77
2023-02-18T14:47:38.648Z,10.83
2023-02-18T14:52:47.689Z,10.75
2023-02-18T14:58:02.671Z,10.70
2023-02-18T15:03:04.347Z,10.63
2023-02-18T15:08:14.346Z,10.35
2023-02-18T15:13:29.776Z,10.22
2023-02-18T15:18:41.640Z,10.28
2023-02-18T15:23:43.260Z,10.38
2023-02-18T15:29:04.897Z,10.64
2023-02-18T15:34:31.270Z,10.91
2023-02-18T15:39:33.147Z,11.02
2023-02-18T15:44:36.774Z,11.11
2023-02-18T15:49:40.257Z,11.22
2023-02-18T15:54:42.818Z,11.22
2023-02-18T15:59:54.913Z,11.24
2023-02-18T16:05:00.534Z,11.23
2023-02-18T16:10:16.526Z,11.13
2023-02-18T16:15:28.976Z,11.24
2023-02-18T16:20:38.839Z,11.18
2023-02-18T16:25:46.600Z,11.16
2023-02-18T16:30:48.246Z,11.17
2023-02-18T16:35:50.978Z,11.11
2023-02-18T16:40:54.497Z,11.13
2023-02-18T16:45:57.953Z,11.01
2023-02-18T16:51:02.528Z,11.05
2023-02-18T16:56:04.412Z,11.10
2023-02-18T17:01:06.268Z,11.12
2023-02-18T17:06:08.329Z,11.10
2023-02-18T17:11:26.163Z,11.04
2023-02-18T17:16:28.183Z,11.04
2023-02-18T17:21:29.815Z,10.91
2023-02-18T17:26:31.963Z,10.66
2023-02-18T17:31:36.512Z,10.55
2023-02-18T17:36:39.626Z,10.47
2023-02-18T17:41:42.411Z,10.50
2023-02-18T17:46:44.332Z,10.52
2023-02-18T17:51:46.088Z,10.59
2023-02-18T17:56:47.702Z,10.64
2023-02-18T18:01:49.389Z,10.73
2023-02-18T18:06:51.205Z,10.72
2023-02-18T18:11:52.857Z,10.70
2023-02-18T18:16:54.516Z,10.81
2023-02-18T18:21:56.146Z,10.94
2023-02-18T18:26:57.803Z,10.86
2023-02-18T18:31:59.457Z,10.62
2023-02-18T18:37:01.061Z,10.51
2023-02-18T18:42:02.672Z,10.43
2023-02-18T18:47:04.353Z,10.50
2023-02-18T18:52:06.035Z,10.53
2023-02-18T18:57:07.639Z,10.59
2023-02-18T19:02:19.804Z,10.71
2023-02-18T19:07:21.440Z,10.65
2023-02-18T19:12:23.187Z,10.72
2023-02-18T19:17:24.784Z,10.66
2023-02-18T19:22:26.368Z,10.64
2023-02-18T19:27:28.050Z,10.59
2023-02-18T19:32:29.668Z,10.54
2023-02-18T19:37:33.039Z,10.42
2023-02-18T19:42:34.706Z,10.39
2023-02-18T19:47:36.585Z,10.33
2023-02-18T19:52:38.261Z,10.26
2023-02-18T19:57:39.908Z,10.18
2023-02-18T20:02:41.911Z,10.15
2023-02-18T20:07:46.136Z,10.13
2023-02-18T20:12:54.214Z,10.26
2023-02-18T20:17:55.924Z,10.25
2023-02-18T20:22:57.572Z,10.12
2023-02-18T20:28:01.525Z,10.13
2023-02-18T20:33:03.439Z,10.16
2023-02-18T20:38:05.032Z,10.15
2023-02-18T20:43:06.637Z,10.15
2023-02-18T20:48:08.360Z,10.13
2023-02-18T20:53:09.959Z,10.10
2023-02-18T20:58:11.600Z,10.05
2023-02-18T21:03:13.203Z,10.12
2023-02-18T21:08:14.794Z,10.08
2023-02-18T21:13:16.464Z,10.08
2023-02-18T21:18:18.486Z,10.01
2023-02-18T21:23:20.167Z,10.08
2023-02-18T21:28:21.771Z,10.15
2023-02-18T21:33:23.472Z,10.11
2023-02-18T21:38:25.098Z,10.17
2023-02-18T21:43:26.802Z,10.19
2023-02-18T21:48:46.898Z,10.17
2023-02-18T21:53:48.516Z,10.14
2023-02-18T21:58:50.108Z,10.07
2023-02-18T22:03:53.533Z,9.99
2023-02-18T22:08:55.136Z,10.05
2023-02-18T22:13:57.069Z,10.06
2023-02-18T22:18:58.764Z,10.14
2023-02-18T22:24:00.414Z,10.20
2023-02-18T22:29:02.414Z,10.01
2023-02-18T22:34:04.056Z,9.87
2023-02-18T22:39:06.369Z,9.92
2023-02-18T22:44:11.350Z,9.95
2023-02-18T22:49:13.190Z,9.92
2023-02-18T22:54:16.595Z,9.87
2023-02-18T22:59:19.338Z,9.90
2023-02-18T23:04:21.929Z,9.93
2023-02-18T23:09:25.151Z,9.91
2023-02-18T23:14:29.746Z,9.95
2023-02-18T23:19:32.575Z,10.04
2023-02-18T23:24:36.154Z,10.04
2023-02-18T23:29:38.417Z,10.02
2023-02-18T23:34:40.305Z,10.06
2023-02-18T23:39:42.039Z,10.06
2023-02-18T23:44:43.706Z,10.04
2023-02-18T23:49:45.310Z,10.04
2023-02-18T23:54:46.908Z,10.00
2023-02-18T23:59:48.509Z,9.98
